Latest Weather Observations for Griffith

IDN60801

Issued at 4:02 pm EDT Sunday 26 March 2017 (issued every 30 minutes, with the page automatically refreshed every 10 minutes)

About weather observations | Map of weather stations | Latest weather observations for NSW | Other Formats
Station Details ID: 075041 Name: GRIFFITH AIRPORT AWS Lat: -34.25 Lon: 146.07 Height: 134.0 m
Data from the previous 72 hours. | See also: Recent months at Griffith
Date/Time
EDT
Temp
°C
App
Temp
°C
Dew
Point
°C
Rel
Hum
%
Delta-T
°C
Wind Press
QNH
hPa
Press
MSL
hPa
Rain since
9am
mm
Dir  Spd
km/h
Gust
km/h
Spd
kts
Gust
kts
26/04:00pm 33.4 33.0 12.4 28 12.6 NNW 6 13 3 7 1011.5 1011.0 0.0
26/03:30pm 33.9 33.3 13.4 29 12.5 WNW 9 19 5 10 1012.0 1011.5 0.0
26/03:00pm 33.7 33.4 13.2 29 12.4 NW 7 15 4 8 1012.2 1011.7 0.0
26/02:30pm 33.2 32.7 12.2 28 12.5 W 6 11 3 6 1012.5 1012.0 0.0
26/02:00pm 32.6 32.3 13.3 31 11.7 ENE 7 15 4 8 1012.8 1012.3 0.0
26/01:30pm 32.6 31.2 13.3 31 11.7 NE 13 24 7 13 1012.9 1012.4 0.0
26/01:00pm 32.1 32.3 14.3 34 10.9 NNE 6 17 3 9 1013.6 1013.1 0.0
26/12:30pm 31.5 30.1 15.5 38 10.0 NE 17 26 9 14 1014.0 1013.5 0.0
26/12:00pm 30.5 31.4 16.5 43 8.8 ENE 7 13 4 7 1014.4 1013.9 0.0
26/11:30am 29.7 30.7 17.8 48 7.6 NNE 9 15 5 8 1014.6 1014.1 0.0
26/11:00am 28.6 30.1 18.1 53 6.7 NE 7 13 4 7 1014.9 1014.4 0.0
26/10:30am 27.0 29.7 18.6 60 5.4 N 2 7 1 4 1015.0 1014.5 0.0
26/10:00am 25.8 27.2 18.7 65 4.5 ENE 9 11 5 6 1014.7 1014.2 0.0
26/09:30am 24.0 25.1 18.9 73 3.3 ENE 11 15 6 8 1014.4 1013.9 0.0
26/09:00am 21.4 23.7 18.6 84 1.8 ESE 4 7 2 4 1014.3 1013.8 0.0
26/08:30am 20.3 21.2 18.4 89 1.2 ESE 11 15 6 8 1013.9 1013.4 0.0
26/08:00am 19.7 20.0 18.0 90 1.1 ESE 13 17 7 9 1013.8 1013.3 0.0
26/07:30am 19.3 19.2 17.8 91 0.9 ESE 15 17 8 9 1013.5 1013.0 0.0
26/07:00am 19.0 20.1 18.0 94 0.6 E 9 13 5 7 1013.1 1012.6 0.0
26/06:30am 18.5 19.9 17.7 95 0.5 E 7 9 4 5 1012.9 1012.4 0.0
26/06:00am 18.4 18.1 17.4 94 0.6 ESE 15 17 8 9 1012.6 1012.1 0.0
26/05:30am 18.6 18.4 17.6 94 0.6 ESE 15 17 8 9 1012.5 1012.0 0.0
26/05:00am 18.5 19.0 17.5 94 0.6 ESE 11 13 6 7 1012.5 1012.0 0.0
26/04:30am 18.9 18.4 17.7 93 0.7 ESE 17 19 9 10 1012.2 1011.7 0.0
26/04:00am 19.0 20.1 18.0 94 0.6 ESE 9 13 5 7 1012.6 1012.1 0.0
26/03:30am 18.9 20.3 17.4 91 0.9 ENE 6 7 3 4 1012.7 1012.2 0.0
26/03:00am 19.4 20.4 17.7 90 1.0 ESE 9 13 5 7 1013.0 1012.5 0.0
26/02:30am 19.4 19.8 17.2 87 1.3 ESE 11 13 6 7 1013.1 1012.6 0.0
26/02:00am 19.7 20.9 17.3 86 1.5 ENE 7 9 4 5 1013.2 1012.7 0.0
26/01:30am 20.9 20.7 17.7 82 2.0 ESE 15 17 8 9 1013.3 1012.8 0.0
26/01:00am 20.9 22.3 17.7 82 2.0 ESE 7 15 4 8 1013.3 1012.8 0.0
26/12:30am 21.5 21.9 18.1 81 2.1 E 13 17 7 9 1013.7 1013.2 0.0
26/12:00am 21.7 22.2 18.3 81 2.1 ESE 13 15 7 8 1013.6 1013.1 0.0
 
Date/Time
EDT
Temp
°C
App
Temp
°C
Dew
Point
°C
Rel
Hum
%
Delta-T
°C
Wind Press
QNH
hPa
Press
MSL
hPa
Rain since
9am
mm
Dir  Spd
km/h
Gust
km/h
Spd
kts
Gust
kts
25/11:30pm 22.3 22.4 18.3 78 2.5 ESE 15 17 8 9 1013.7 1013.2 0.0
25/11:00pm 22.7 23.3 18.5 77 2.7 E 13 15 7 8 1013.8 1013.3 0.0
25/10:30pm 22.7 23.7 18.7 78 2.5 ESE 11 13 6 7 1013.6 1013.1 0.0
25/10:00pm 23.4 24.4 18.7 75 3.0 ESE 11 13 6 7 1013.6 1013.1 0.0
25/09:30pm 23.7 24.6 18.4 72 3.4 ESE 11 13 6 7 1013.1 1012.6 0.0
25/09:00pm 24.7 25.1 18.2 67 4.1 ESE 13 17 7 9 1012.9 1012.4 0.0
25/08:30pm 25.4 25.1 18.3 65 4.5 SE 17 20 9 11 1012.4 1011.9 0.0
25/08:00pm 25.5 25.9 18.2 64 4.6 SE 13 17 7 9 1011.9 1011.4 0.0
25/07:30pm 26.9 26.9 18.2 59 5.6 SE 15 20 8 11 1011.8 1011.3 0.0
25/07:00pm 27.8 28.4 18.5 57 6.0 SE 13 19 7 10 1011.4 1010.9 0.0
25/06:30pm 28.4 29.0 18.5 55 6.4 SE 13 19 7 10 1011.4 1010.9 0.0
25/06:00pm 29.0 29.3 18.7 53 6.7 SE 15 20 8 11 1011.3 1010.8 0.0
25/05:30pm 29.0 28.5 18.7 53 6.7 SE 19 24 10 13 1011.1 1010.6 0.0
25/05:00pm 29.6 29.0 18.4 51 7.2 SSE 19 24 10 13 1010.8 1010.3 0.0
25/04:30pm 30.3 30.5 17.7 46 8.1 SW 13 17 7 9 1010.7 1010.2 0.0
25/04:00pm 30.4 31.4 17.8 46 8.1 SSW 9 20 5 11 1010.9 1010.4 0.0
25/03:30pm 30.5 32.6 18.2 47 7.9 S 4 15 2 8 1011.1 1010.6 0.0
25/03:00pm 32.1 35.3 19.7 48 8.2 WNW 2 11 1 6 1011.2 1010.7 0.0
25/02:30pm 30.4 32.4 18.8 50 7.5 WSW 6 13 3 7 1011.4 1010.9 0.0
25/02:00pm 29.9 31.8 19.0 52 7.1 NW 7 17 4 9 1011.9 1011.4 0.0
25/01:30pm 29.6 31.3 18.4 51 7.2 W 7 13 4 7 1012.2 1011.7 0.0
25/01:00pm 29.0 30.6 17.8 50 7.2 W 6 15 3 8 1012.5 1012.0 0.0
25/12:30pm 27.9 27.9 17.1 51 6.8 W 13 17 7 9 1013.0 1012.5 0.0
25/12:00pm 27.9 28.9 17.7 53 6.5 N 9 19 5 10 1013.5 1013.0 0.0
25/11:30am 26.7 26.7 17.2 56 6.0 N 13 20 7 11 1013.8 1013.3 0.0
25/11:00am 25.6 24.6 16.7 58 5.5 N 17 24 9 13 1013.9 1013.4 0.0
25/10:30am 25.6 24.4 17.0 59 5.4 N 19 24 10 13 1013.9 1013.4 0.0
25/10:00am 24.6 23.6 16.6 61 4.9 N 17 26 9 14 1014.1 1013.6 0.0
25/09:30am 23.0 21.3 15.8 64 4.4 NE 19 24 10 13 1013.9 1013.4 0.0
25/09:00am 22.3 21.7 16.6 70 3.5 NE 15 19 8 10 1014.0 1013.5 0.0
25/08:30am 20.8 21.1 17.0 79 2.3 ENE 11 13 6 7 1013.9 1013.4 0.0
25/08:00am 20.3 20.2 16.1 77 2.5 ENE 11 13 6 7 1013.6 1013.1 0.0
25/07:30am 20.2 20.6 16.2 78 2.4 NE 9 13 5 7 1013.1 1012.6 0.0
25/07:00am 20.3 20.0 16.5 79 2.3 NE 13 17 7 9 1012.9 1012.4 0.0
25/06:30am 19.9 20.8 16.5 81 2.1 E 7 9 4 5 1013.2 1012.7 0.0
25/06:00am 19.9 20.6 16.2 79 2.2 E 7 11 4 6 1013.1 1012.6 0.0
25/05:30am 21.0 20.5 15.8 72 3.1 ENE 13 22 7 12 1013.0 1012.5 0.0
25/05:00am 22.0 21.3 16.3 70 3.5 NE 15 20 8 11 1012.8 1012.3 0.0
25/04:30am 21.5 21.2 16.5 73 3.0 ENE 13 19 7 10 1012.9 1012.4 0.0
25/04:00am 21.2 20.6 16.6 75 2.8 ENE 15 19 8 10 1012.9 1012.4 0.0
25/03:30am 21.3 20.9 16.3 73 3.0 ENE 13 19 7 10 1013.0 1012.5 0.0
25/03:00am 21.8 21.4 16.3 71 3.3 NE 13 20 7 11 1013.6 1013.1 0.0
25/02:30am 22.3 22.1 16.6 70 3.5 NE 13 19 7 10 1013.7 1013.2 0.0
25/02:00am 22.0 22.8 17.4 75 2.8 NE 9 13 5 7 1013.8 1013.3 0.0
25/01:30am 22.3 22.5 17.7 75 2.9 NE 13 17 7 9 1014.1 1013.6 0.0
25/01:00am 22.6 22.5 17.9 75 2.9 NE 15 22 8 12 1014.1 1013.6 0.0
25/12:30am 22.0 22.4 18.2 79 2.4 ENE 13 17 7 9 1014.3 1013.8 0.0
25/12:00am 21.7 22.0 17.9 79 2.4 E 13 19 7 10 1014.4 1013.9 0.0
 
Date/Time
EDT
Temp
°C
App
Temp
°C
Dew
Point
°C
Rel
Hum
%
Delta-T
°C
Wind Press
QNH
hPa
Press
MSL
hPa
Rain since
9am
mm
Dir  Spd
km/h
Gust
km/h
Spd
kts
Gust
kts
24/11:30pm 21.8 21.9 17.4 76 2.7 ENE 13 17 7 9 1014.4 1013.9 0.0
24/11:00pm 23.7 24.0 17.9 70 3.6 NE 13 19 7 10 1014.2 1013.7 0.0
24/10:30pm 23.8 23.8 17.1 66 4.2 NNE 13 19 7 10 1014.0 1013.5 0.0
24/10:00pm 24.6 23.8 17.1 63 4.7 NE 17 24 9 13 1013.7 1013.2 0.0
24/09:30pm 24.5 24.3 17.5 65 4.4 NE 15 20 8 11 1013.7 1013.2 0.0
24/09:00pm 24.6 24.6 17.3 64 4.6 NE 13 17 7 9 1013.9 1013.4 0.0
24/08:30pm 25.0 24.5 17.7 64 4.6 NE 17 20 9 11 1013.4 1012.9 0.0
24/08:00pm 25.1 25.7 17.6 63 4.7 NE 11 17 6 9 1013.6 1013.1 0.0
24/07:30pm 25.7 25.5 17.6 61 5.1 NE 15 19 8 10 1013.1 1012.6 0.0
24/07:00pm 26.3 26.2 17.9 60 5.3 ENE 15 20 8 11 1012.9 1012.4 0.0
24/06:30pm 27.3 26.8 17.8 56 6.0 NE 17 24 9 13 1012.8 1012.3 0.0
24/06:00pm 27.5 26.8 17.4 54 6.4 ENE 17 22 9 12 1012.8 1012.3 0.0
24/05:30pm 28.3 26.9 16.9 50 7.2 ENE 20 28 11 15 1012.9 1012.4 0.0
24/05:00pm 29.3 27.4 16.8 47 7.9 ENE 22 28 12 15 1012.8 1012.3 0.0
24/04:30pm 29.1 27.5 16.6 46 7.8 ENE 20 26 11 14 1012.7 1012.2 0.0
24/04:00pm 29.4 27.1 16.6 46 8.0 ENE 24 30 13 16 1012.8 1012.3 0.0
24/03:30pm 28.9 27.3 16.5 47 7.8 ENE 20 28 11 15 1013.2 1012.7 0.0
24/03:00pm 30.1 28.7 16.9 45 8.3 ENE 20 28 11 15 1013.6 1013.1 0.0
24/02:30pm 28.7 25.7 15.9 45 7.9 ENE 26 35 14 19 1013.8 1013.3 0.0
24/02:00pm 28.6 26.5 16.2 47 7.7 ENE 22 30 12 16 1014.6 1014.1 0.0
24/01:30pm 28.1 25.2 16.1 48 7.4 ENE 26 35 14 19 1015.1 1014.7 0.0
24/01:00pm 27.5 24.4 15.5 48 7.4 ENE 26 33 14 18 1015.3 1014.9 0.0
24/12:30pm 27.0 23.9 15.7 50 6.9 ENE 26 35 14 19 1015.6 1015.2 0.0
24/12:00pm 26.1 23.0 15.5 52 6.5 ENE 26 39 14 21 1016.4 1015.9 0.0
24/11:30am 25.4 22.1 15.1 53 6.2 ENE 26 35 14 19 1016.9 1016.4 0.0
24/11:00am 24.7 21.1 15.3 56 5.7 E 28 37 15 20 1017.0 1016.5 0.0
24/10:30am 23.4 19.2 14.7 58 5.2 ENE 30 37 16 20 1016.8 1016.3 0.0
24/10:00am 22.7 19.7 14.8 61 4.7 E 24 37 13 20 1016.6 1016.1 0.0
24/09:30am 21.2 17.4 14.6 66 3.9 E 28 35 15 19 1016.7 1016.2 0.0
24/09:00am 19.9 16.0 14.5 71 3.2 E 28 35 15 19 1016.7 1016.2 0.0
24/08:30am 18.8 16.2 14.9 78 2.3 E 22 30 12 16 1016.4 1015.9 0.0
24/08:00am 17.5 15.8 14.6 83 1.7 ESE 17 22 9 12 1016.3 1015.8 0.0
24/07:30am 16.7 14.9 14.5 87 1.3 ESE 17 24 9 13 1016.1 1015.6 0.0
24/07:00am 16.4 14.5 14.2 87 1.3 ESE 17 22 9 12 1016.0 1015.5 0.0
24/06:30am 16.3 14.8 14.1 87 1.3 ESE 15 20 8 11 1015.9 1015.4 0.0
24/06:00am 16.5 14.6 14.2 86 1.3 ESE 17 20 9 11 1015.8 1015.3 0.0
24/05:30am 16.6 14.7 14.2 86 1.4 ESE 17 20 9 11 1015.6 1015.2 0.0
24/05:00am 16.9 14.6 14.2 84 1.5 ESE 19 22 10 12 1015.8 1015.3 0.0
24/04:30am 17.2 14.8 14.3 83 1.7 ESE 20 28 11 15 1015.6 1015.2 0.0
24/04:00am 17.0 14.2 14.3 84 1.6 ESE 22 28 12 15 1015.6 1015.2 0.0
24/03:30am 17.1 14.8 14.6 85 1.4 ESE 20 24 11 13 1015.8 1015.3 0.0
24/03:00am 17.5 15.4 14.8 84 1.6 SE 19 24 10 13 1016.0 1015.5 0.0
24/02:30am 17.6 15.4 14.9 84 1.6 SE 20 24 11 13 1016.0 1015.5 0.0
24/02:00am 17.7 15.8 15.3 86 1.4 ESE 19 24 10 13 1015.9 1015.4 0.0
24/01:30am 17.9 16.4 15.3 85 1.5 ESE 17 20 9 11 1016.0 1015.5 0.0
24/01:00am 18.4 16.6 15.5 83 1.7 ESE 19 24 10 13 1016.0 1015.5 0.0
24/12:30am 18.7 16.7 15.6 82 1.8 ESE 20 24 11 13 1016.1 1015.6 0.0
24/12:00am 19.1 17.2 15.8 81 2.0 ESE 20 26 11 14 1016.1 1015.6 0.0
 
Date/Time
EDT
Temp
°C
App
Temp
°C
Dew
Point
°C
Rel
Hum
%
Delta-T
°C
Wind Press
QNH
hPa
Press
MSL
hPa
Rain since
9am
mm
Dir  Spd
km/h
Gust
km/h
Spd
kts
Gust
kts
23/11:30pm 19.3 17.4 15.8 80 2.1 ESE 20 28 11 15 1016.3 1015.8 0.0
23/11:00pm 19.7 17.5 16.0 79 2.2 ESE 22 30 12 16 1016.2 1015.7 0.0
23/10:30pm 19.7 17.9 16.0 79 2.2 ESE 20 26 11 14 1016.3 1015.8 0.0
23/10:00pm 20.1 17.9 15.9 77 2.5 ESE 22 28 12 15 1016.2 1015.7 0.0
23/09:30pm 20.4 18.2 16.0 76 2.6 ESE 22 32 12 17 1015.9 1015.4 0.0
23/09:00pm 20.9 18.8 16.1 74 2.9 ESE 22 30 12 16 1015.8 1015.3 0.0
23/08:30pm 21.3 19.2 16.3 73 3.0 ESE 22 30 12 16 1015.3 1014.9 0.0
23/08:00pm 22.0 20.1 16.7 72 3.2 ESE 22 30 12 16 1014.8 1014.3 0.0
23/07:30pm 22.7 20.1 16.9 70 3.6 ESE 26 37 14 20 1014.4 1013.9 0.0
23/07:00pm 23.7 21.4 17.7 69 3.8 ESE 26 35 14 19 1013.9 1013.4 0.0
23/06:30pm 24.6 22.5 18.1 67 4.1 E 26 35 14 19 1013.5 1013.0 0.0
23/06:00pm 25.1 22.7 18.3 66 4.3 ESE 28 35 15 19 1013.3 1012.8 0.0
23/05:30pm 25.6 22.8 18.3 64 4.6 SE 30 39 16 21 1013.2 1012.7 0.0
23/05:00pm 27.3 24.9 19.1 61 5.3 ESE 30 37 16 20 1013.0 1012.5 0.0
23/04:30pm 27.8 25.9 19.3 60 5.5 ESE 28 35 15 19 1013.1 1012.6 0.0

Other Formats:

Comma delimited format used in spreadsheet applications
http://www.bom.gov.au/fwo/IDN60801/IDN60801.95704.axf

JavaScript Object Notation format (JSON) in row-major order
http://www.bom.gov.au/fwo/IDN60801/IDN60801.95704.json